sensor_id;sensor_type;location;lat;lon;timestamp;pressure;altitude;pressure_sealevel;temperature;humidity
78064;BME280;67429;51.596;-3.264;2023-04-24T00:02:10;98649.91;;;5.33;56.43
78064;BME280;67429;51.596;-3.264;2023-04-24T00:04:36;98656.36;;;5.71;54.95
78064;BME280;67429;51.596;-3.264;2023-04-24T00:07:01;98661.60;;;6.14;53.78
78064;BME280;67429;51.596;-3.264;2023-04-24T00:09:27;98661.98;;;6.05;53.62
78064;BME280;67429;51.596;-3.264;2023-04-24T00:11:52;98657.81;;;5.73;54.47
78064;BME280;67429;51.596;-3.264;2023-04-24T00:14:18;98666.63;;;5.78;53.91
78064;BME280;67429;51.596;-3.264;2023-04-24T00:16:44;98666.50;;;5.69;54.61
78064;BME280;67429;51.596;-3.264;2023-04-24T00:19:09;98664.77;;;5.30;57.11
78064;BME280;67429;51.596;-3.264;2023-04-24T00:21:34;98666.11;;;5.47;56.85
78064;BME280;67429;51.596;-3.264;2023-04-24T00:24:00;98664.86;;;5.56;56.79
78064;BME280;67429;51.596;-3.264;2023-04-24T00:26:26;98665.96;;;5.79;55.85
78064;BME280;67429;51.596;-3.264;2023-04-24T00:28:51;98660.40;;;6.10;55.72
78064;BME280;67429;51.596;-3.264;2023-04-24T00:31:16;98655.81;;;5.41;57.22
78064;BME280;67429;51.596;-3.264;2023-04-24T00:33:41;98655.81;;;4.93;58.25
78064;BME280;67429;51.596;-3.264;2023-04-24T00:36:07;98653.12;;;5.53;57.46
78064;BME280;67429;51.596;-3.264;2023-04-24T00:38:33;98654.48;;;5.11;58.58
78064;BME280;67429;51.596;-3.264;2023-04-24T00:40:59;98658.16;;;4.94;58.93
78064;BME280;67429;51.596;-3.264;2023-04-24T00:43:24;98664.92;;;5.65;57.55
78064;BME280;67429;51.596;-3.264;2023-04-24T00:45:49;98668.32;;;6.00;55.76
78064;BME280;67429;51.596;-3.264;2023-04-24T00:48:16;98669.01;;;5.61;56.20
78064;BME280;67429;51.596;-3.264;2023-04-24T00:50:41;98671.25;;;5.79;55.65
78064;BME280;67429;51.596;-3.264;2023-04-24T00:53:06;98672.89;;;5.36;56.00
78064;BME280;67429;51.596;-3.264;2023-04-24T00:55:32;98674.97;;;6.38;53.45
78064;BME280;67429;51.596;-3.264;2023-04-24T00:57:57;98679.74;;;6.33;53.46
78064;BME280;67429;51.596;-3.264;2023-04-24T01:00:22;98681.94;;;6.12;54.13
78064;BME280;67429;51.596;-3.264;2023-04-24T01:02:48;98680.01;;;6.04;54.33
78064;BME280;67429;51.596;-3.264;2023-04-24T01:05:15;98674.58;;;5.62;55.08
78064;BME280;67429;51.596;-3.264;2023-04-24T01:07:41;98676.13;;;5.80;55.84
78064;BME280;67429;51.596;-3.264;2023-04-24T01:10:06;98675.00;;;5.65;56.12
78064;BME280;67429;51.596;-3.264;2023-04-24T01:12:30;98678.88;;;5.84;56.65
78064;BME280;67429;51.596;-3.264;2023-04-24T01:14:56;98674.59;;;5.83;56.50
78064;BME280;67429;51.596;-3.264;2023-04-24T01:17:21;98675.87;;;6.09;55.51
78064;BME280;67429;51.596;-3.264;2023-04-24T01:19:47;98677.08;;;6.17;55.18
78064;BME280;67429;51.596;-3.264;2023-04-24T01:22:14;98681.53;;;5.80;55.67
78064;BME280;67429;51.596;-3.264;2023-04-24T01:24:38;98684.80;;;5.92;54.39
78064;BME280;67429;51.596;-3.264;2023-04-24T01:27:04;98680.67;;;5.96;55.30
78064;BME280;67429;51.596;-3.264;2023-04-24T01:29:29;98677.54;;;5.74;54.62
78064;BME280;67429;51.596;-3.264;2023-04-24T01:31:55;98676.53;;;5.45;54.81
78064;BME280;67429;51.596;-3.264;2023-04-24T01:34:21;98681.05;;;6.09;53.59
78064;BME280;67429;51.596;-3.264;2023-04-24T01:36:46;98685.12;;;6.13;53.81
78064;BME280;67429;51.596;-3.264;2023-04-24T01:39:11;98678.29;;;6.25;53.04
78064;BME280;67429;51.596;-3.264;2023-04-24T01:41:36;98677.11;;;6.16;53.10
78064;BME280;67429;51.596;-3.264;2023-04-24T01:44:02;98676.60;;;6.55;53.66
78064;BME280;67429;51.596;-3.264;2023-04-24T01:46:27;98678.02;;;6.22;53.36
78064;BME280;67429;51.596;-3.264;2023-04-24T01:48:53;98682.96;;;6.18;53.30
78064;BME280;67429;51.596;-3.264;2023-04-24T01:51:18;98685.93;;;6.14;53.48
78064;BME280;67429;51.596;-3.264;2023-04-24T01:53:44;98685.81;;;5.78;54.40
78064;BME280;67429;51.596;-3.264;2023-04-24T01:56:09;98689.64;;;5.80;56.06
78064;BME280;67429;51.596;-3.264;2023-04-24T01:58:35;98689.56;;;5.81;56.53
78064;BME280;67429;51.596;-3.264;2023-04-24T02:01:00;98691.15;;;5.82;56.33
78064;BME280;67429;51.596;-3.264;2023-04-24T02:03:26;98685.37;;;6.34;54.90
78064;BME280;67429;51.596;-3.264;2023-04-24T02:05:51;98686.72;;;6.05;55.47
78064;BME280;67429;51.596;-3.264;2023-04-24T02:08:16;98688.78;;;6.34;56.09
78064;BME280;67429;51.596;-3.264;2023-04-24T02:10:41;98692.66;;;5.95;56.07
78064;BME280;67429;51.596;-3.264;2023-04-24T02:13:07;98695.65;;;5.71;56.82
78064;BME280;67429;51.596;-3.264;2023-04-24T02:15:32;98697.92;;;5.98;56.28
78064;BME280;67429;51.596;-3.264;2023-04-24T02:17:57;98700.73;;;6.03;55.56
78064;BME280;67429;51.596;-3.264;2023-04-24T02:20:23;98702.82;;;6.08;56.45
78064;BME280;67429;51.596;-3.264;2023-04-24T02:22:48;98709.34;;;5.21;58.52
78064;BME280;67429;51.596;-3.264;2023-04-24T02:25:14;98707.13;;;5.43;58.41
78064;BME280;67429;51.596;-3.264;2023-04-24T02:27:39;98706.23;;;5.34;58.72
78064;BME280;67429;51.596;-3.264;2023-04-24T02:30:06;98705.40;;;5.26;59.21
78064;BME280;67429;51.596;-3.264;2023-04-24T02:32:30;98704.49;;;5.51;58.69
78064;BME280;67429;51.596;-3.264;2023-04-24T02:34:55;98707.62;;;6.15;56.96
78064;BME280;67429;51.596;-3.264;2023-04-24T02:37:21;98714.86;;;6.27;56.49
78064;BME280;67429;51.596;-3.264;2023-04-24T02:39:46;98716.03;;;6.19;56.30
78064;BME280;67429;51.596;-3.264;2023-04-24T02:42:12;98714.96;;;6.40;55.54
78064;BME280;67429;51.596;-3.264;2023-04-24T02:44:38;98718.14;;;6.47;55.91
78064;BME280;67429;51.596;-3.264;2023-04-24T02:47:03;98723.99;;;6.77;55.06
78064;BME280;67429;51.596;-3.264;2023-04-24T02:49:28;98721.71;;;6.45;55.06
78064;BME280;67429;51.596;-3.264;2023-04-24T02:51:54;98719.56;;;6.29;55.83
78064;BME280;67429;51.596;-3.264;2023-04-24T02:54:20;98715.12;;;6.39;56.30
78064;BME280;67429;51.596;-3.264;2023-04-24T02:56:45;98710.77;;;5.98;57.11
78064;BME280;67429;51.596;-3.264;2023-04-24T02:59:10;98713.20;;;6.17;57.19
78064;BME280;67429;51.596;-3.264;2023-04-24T03:01:36;98718.53;;;7.09;55.42
78064;BME280;67429;51.596;-3.264;2023-04-24T03:04:01;98724.00;;;6.62;56.02
78064;BME280;67429;51.596;-3.264;2023-04-24T03:06:27;98722.10;;;6.66;55.94
78064;BME280;67429;51.596;-3.264;2023-04-24T03:08:53;98716.30;;;6.97;54.85
78064;BME280;67429;51.596;-3.264;2023-04-24T03:11:18;98713.64;;;7.11;55.58
78064;BME280;67429;51.596;-3.264;2023-04-24T03:13:44;98715.05;;;7.17;54.92
78064;BME280;67429;51.596;-3.264;2023-04-24T03:16:10;98716.34;;;6.89;55.22
78064;BME280;67429;51.596;-3.264;2023-04-24T03:18:34;98714.83;;;7.66;54.56
78064;BME280;67429;51.596;-3.264;2023-04-24T03:21:00;98715.64;;;7.17;55.01
78064;BME280;67429;51.596;-3.264;2023-04-24T03:23:25;98708.77;;;6.95;54.95
78064;BME280;67429;51.596;-3.264;2023-04-24T03:25:51;98706.49;;;7.55;54.65
78064;BME280;67429;51.596;-3.264;2023-04-24T03:28:16;98707.04;;;7.08;54.40
78064;BME280;67429;51.596;-3.264;2023-04-24T03:30:42;98707.02;;;6.98;54.55
78064;BME280;67429;51.596;-3.264;2023-04-24T03:33:07;98707.88;;;7.06;54.10
78064;BME280;67429;51.596;-3.264;2023-04-24T03:35:33;98708.32;;;7.19;53.57
78064;BME280;67429;51.596;-3.264;2023-04-24T03:37:58;98707.24;;;7.28;53.01
78064;BME280;67429;51.596;-3.264;2023-04-24T03:40:23;98708.46;;;7.59;51.66
78064;BME280;67429;51.596;-3.264;2023-04-24T03:42:49;98705.84;;;7.44;51.96
78064;BME280;67429;51.596;-3.264;2023-04-24T03:45:14;98706.20;;;6.97;52.93
78064;BME280;67429;51.596;-3.264;2023-04-24T03:47:40;98704.52;;;6.15;54.94
78064;BME280;67429;51.596;-3.264;2023-04-24T03:50:06;98699.84;;;5.76;54.78
78064;BME280;67429;51.596;-3.264;2023-04-24T03:52:30;98696.56;;;6.55;52.49
78064;BME280;67429;51.596;-3.264;2023-04-24T03:54:55;98698.47;;;6.54;53.36
78064;BME280;67429;51.596;-3.264;2023-04-24T03:57:21;98702.46;;;6.49;54.29
78064;BME280;67429;51.596;-3.264;2023-04-24T03:59:46;98701.76;;;6.27;54.58
78064;BME280;67429;51.596;-3.264;2023-04-24T04:02:12;98702.20;;;6.22;55.40
78064;BME280;67429;51.596;-3.264;2023-04-24T04:04:38;98707.04;;;6.64;54.11
78064;BME280;67429;51.596;-3.264;2023-04-24T04:07:03;98703.93;;;6.91;53.80
78064;BME280;67429;51.596;-3.264;2023-04-24T04:09:28;98699.62;;;7.07;53.56
78064;BME280;67429;51.596;-3.264;2023-04-24T04:11:54;98704.39;;;6.91;53.39
78064;BME280;67429;51.596;-3.264;2023-04-24T04:14:20;98701.97;;;6.89;52.74
78064;BME280;67429;51.596;-3.264;2023-04-24T04:16:45;98704.83;;;7.03;52.66
78064;BME280;67429;51.596;-3.264;2023-04-24T04:19:11;98702.51;;;6.58;54.00
78064;BME280;67429;51.596;-3.264;2023-04-24T04:21:36;98700.20;;;6.19;54.96
78064;BME280;67429;51.596;-3.264;2023-04-24T04:24:01;98698.14;;;6.58;53.68
78064;BME280;67429;51.596;-3.264;2023-04-24T04:26:27;98691.77;;;6.21;54.30
78064;BME280;67429;51.596;-3.264;2023-04-24T04:28:53;98691.27;;;5.13;56.67
78064;BME280;67429;51.596;-3.264;2023-04-24T04:31:18;98698.82;;;4.91;57.71
78064;BME280;67429;51.596;-3.264;2023-04-24T04:33:43;98703.00;;;5.15;57.87
78064;BME280;67429;51.596;-3.264;2023-04-24T04:36:08;98704.68;;;5.67;56.75
78064;BME280;67429;51.596;-3.264;2023-04-24T04:38:33;98709.31;;;4.36;59.45
78064;BME280;67429;51.596;-3.264;2023-04-24T04:40:59;98716.36;;;3.99;60.53
78064;BME280;67429;51.596;-3.264;2023-04-24T04:43:25;98720.28;;;4.79;58.73
78064;BME280;67429;51.596;-3.264;2023-04-24T04:45:50;98725.17;;;5.62;57.43
78064;BME280;67429;51.596;-3.264;2023-04-24T04:48:15;98728.36;;;5.88;56.60
78064;BME280;67429;51.596;-3.264;2023-04-24T04:50:41;98734.55;;;5.62;57.05
78064;BME280;67429;51.596;-3.264;2023-04-24T04:53:07;98737.39;;;6.05;56.41
78064;BME280;67429;51.596;-3.264;2023-04-24T04:55:32;98738.82;;;5.92;57.39
78064;BME280;67429;51.596;-3.264;2023-04-24T04:57:58;98740.03;;;5.02;58.94
78064;BME280;67429;51.596;-3.264;2023-04-24T05:00:23;98739.04;;;5.51;57.55
78064;BME280;67429;51.596;-3.264;2023-04-24T05:02:49;98733.49;;;5.98;56.41
78064;BME280;67429;51.596;-3.264;2023-04-24T05:05:14;98734.41;;;6.44;55.66
78064;BME280;67429;51.596;-3.264;2023-04-24T05:07:39;98737.84;;;6.46;55.12
78064;BME280;67429;51.596;-3.264;2023-04-24T05:10:06;98739.84;;;6.54;54.84
78064;BME280;67429;51.596;-3.264;2023-04-24T05:12:31;98744.97;;;6.49;54.78
78064;BME280;67429;51.596;-3.264;2023-04-24T05:14:56;98742.80;;;6.50;54.75
78064;BME280;67429;51.596;-3.264;2023-04-24T05:17:21;98749.40;;;6.56;54.57
78064;BME280;67429;51.596;-3.264;2023-04-24T05:19:47;98746.63;;;6.52;55.05
78064;BME280;67429;51.596;-3.264;2023-04-24T05:22:12;98747.27;;;6.62;54.05
78064;BME280;67429;51.596;-3.264;2023-04-24T05:24:38;98752.02;;;6.83;53.62
78064;BME280;67429;51.596;-3.264;2023-04-24T05:27:04;98750.19;;;6.30;54.48
78064;BME280;67429;51.596;-3.264;2023-04-24T05:29:29;98748.54;;;5.71;55.84
78064;BME280;67429;51.596;-3.264;2023-04-24T05:31:54;98756.26;;;6.47;54.47
78064;BME280;67429;51.596;-3.264;2023-04-24T05:34:19;98756.28;;;6.53;54.56
78064;BME280;67429;51.596;-3.264;2023-04-24T05:36:45;98751.82;;;6.49;54.76
78064;BME280;67429;51.596;-3.264;2023-04-24T05:39:11;98751.68;;;6.85;53.68
78064;BME280;67429;51.596;-3.264;2023-04-24T05:41:36;98749.83;;;7.11;53.10
78064;BME280;67429;51.596;-3.264;2023-04-24T05:44:02;98744.20;;;7.17;53.41
78064;BME280;67429;51.596;-3.264;2023-04-24T05:46:27;98737.47;;;7.56;53.16
78064;BME280;67429;51.596;-3.264;2023-04-24T05:48:52;98738.66;;;7.55;52.39
78064;BME280;67429;51.596;-3.264;2023-04-24T05:51:18;98744.88;;;7.76;51.80
78064;BME280;67429;51.596;-3.264;2023-04-24T05:53:43;98746.59;;;7.57;52.76
78064;BME280;67429;51.596;-3.264;2023-04-24T05:56:09;98747.80;;;6.13;55.15
78064;BME280;67429;51.596;-3.264;2023-04-24T05:58:34;98753.49;;;6.65;55.24
78064;BME280;67429;51.596;-3.264;2023-04-24T06:01:00;98754.80;;;7.26;54.40
78064;BME280;67429;51.596;-3.264;2023-04-24T06:03:25;98757.63;;;6.88;55.27
78064;BME280;67429;51.596;-3.264;2023-04-24T06:05:50;98754.19;;;7.15;55.12
78064;BME280;67429;51.596;-3.264;2023-04-24T06:08:15;98749.34;;;7.55;53.53
78064;BME280;67429;51.596;-3.264;2023-04-24T06:10:40;98746.70;;;8.01;52.79
78064;BME280;67429;51.596;-3.264;2023-04-24T06:13:06;98748.71;;;8.34;52.25
78064;BME280;67429;51.596;-3.264;2023-04-24T06:15:32;98750.55;;;8.34;51.41
78064;BME280;67429;51.596;-3.264;2023-04-24T06:17:58;98750.50;;;7.88;51.84
78064;BME280;67429;51.596;-3.264;2023-04-24T06:20:23;98751.32;;;8.66;50.38
78064;BME280;67429;51.596;-3.264;2023-04-24T06:22:49;98755.14;;;8.79;50.48
78064;BME280;67429;51.596;-3.264;2023-04-24T06:25:14;98756.56;;;9.27;50.13
78064;BME280;67429;51.596;-3.264;2023-04-24T06:27:39;98751.64;;;8.52;50.48
78064;BME280;67429;51.596;-3.264;2023-04-24T06:30:07;98751.51;;;9.14;49.97
78064;BME280;67429;51.596;-3.264;2023-04-24T06:32:31;98750.36;;;9.02;49.80
78064;BME280;67429;51.596;-3.264;2023-04-24T06:34:56;98753.39;;;9.62;49.06
78064;BME280;67429;51.596;-3.264;2023-04-24T06:37:22;98751.50;;;9.04;50.16
78064;BME280;67429;51.596;-3.264;2023-04-24T06:39:47;98753.85;;;9.31;49.47
78064;BME280;67429;51.596;-3.264;2023-04-24T06:42:12;98753.67;;;9.32;50.05
78064;BME280;67429;51.596;-3.264;2023-04-24T06:44:37;98758.19;;;9.62;50.10
78064;BME280;67429;51.596;-3.264;2023-04-24T06:47:03;98758.81;;;9.45;49.65
78064;BME280;67429;51.596;-3.264;2023-04-24T06:49:28;98763.25;;;9.28;49.39
78064;BME280;67429;51.596;-3.264;2023-04-24T06:51:53;98759.68;;;9.47;49.77
78064;BME280;67429;51.596;-3.264;2023-04-24T06:54:19;98762.94;;;9.60;50.14
78064;BME280;67429;51.596;-3.264;2023-04-24T06:56:44;98760.11;;;9.69;49.32
78064;BME280;67429;51.596;-3.264;2023-04-24T06:59:09;98764.45;;;9.85;49.24
78064;BME280;67429;51.596;-3.264;2023-04-24T07:01:35;98777.78;;;9.05;50.89
78064;BME280;67429;51.596;-3.264;2023-04-24T07:04:00;98784.39;;;8.44;52.15
78064;BME280;67429;51.596;-3.264;2023-04-24T07:06:26;98789.13;;;7.91;55.20
78064;BME280;67429;51.596;-3.264;2023-04-24T07:08:51;98786.22;;;7.57;56.90
78064;BME280;67429;51.596;-3.264;2023-04-24T07:11:16;98787.45;;;7.79;56.60
78064;BME280;67429;51.596;-3.264;2023-04-24T07:13:42;98788.16;;;8.30;55.29
78064;BME280;67429;51.596;-3.264;2023-04-24T07:16:07;98788.25;;;6.25;58.94
78064;BME280;67429;51.596;-3.264;2023-04-24T07:18:33;98783.97;;;6.05;61.91
78064;BME280;67429;51.596;-3.264;2023-04-24T07:20:58;98781.28;;;5.09;64.68
78064;BME280;67429;51.596;-3.264;2023-04-24T07:23:23;98781.07;;;4.67;65.60
78064;BME280;67429;51.596;-3.264;2023-04-24T07:25:49;98775.79;;;4.90;65.69
78064;BME280;67429;51.596;-3.264;2023-04-24T07:28:14;98780.06;;;4.75;67.66
78064;BME280;67429;51.596;-3.264;2023-04-24T07:30:40;98789.61;;;5.45;64.90
78064;BME280;67429;51.596;-3.264;2023-04-24T07:33:05;98795.90;;;5.74;63.29
78064;BME280;67429;51.596;-3.264;2023-04-24T07:35:31;98802.65;;;5.89;62.80
78064;BME280;67429;51.596;-3.264;2023-04-24T07:37:56;98808.27;;;6.66;61.07
78064;BME280;67429;51.596;-3.264;2023-04-24T07:40:22;98815.57;;;6.94;60.47
78064;BME280;67429;51.596;-3.264;2023-04-24T07:42:47;98816.31;;;6.91;60.11
78064;BME280;67429;51.596;-3.264;2023-04-24T07:45:13;98812.22;;;7.05;59.84
78064;BME280;67429;51.596;-3.264;2023-04-24T07:47:38;98813.69;;;7.17;59.89
78064;BME280;67429;51.596;-3.264;2023-04-24T07:50:04;98810.13;;;6.36;60.21
78064;BME280;67429;51.596;-3.264;2023-04-24T07:52:29;98809.77;;;6.74;59.39
78064;BME280;67429;51.596;-3.264;2023-04-24T07:54:55;98806.88;;;6.80;59.02
78064;BME280;67429;51.596;-3.264;2023-04-24T07:57:21;98804.50;;;6.65;59.03
78064;BME280;67429;51.596;-3.264;2023-04-24T07:59:45;98797.76;;;5.88;59.59
78064;BME280;67429;51.596;-3.264;2023-04-24T08:02:11;98797.49;;;6.99;57.55
78064;BME280;67429;51.596;-3.264;2023-04-24T08:04:37;98800.60;;;6.87;58.82
78064;BME280;67429;51.596;-3.264;2023-04-24T08:07:02;98804.57;;;7.45;58.41
78064;BME280;67429;51.596;-3.264;2023-04-24T08:09:27;98811.50;;;7.26;58.21
78064;BME280;67429;51.596;-3.264;2023-04-24T08:11:53;98808.73;;;7.50;57.94
78064;BME280;67429;51.596;-3.264;2023-04-24T08:14:19;98799.01;;;5.74;60.18
78064;BME280;67429;51.596;-3.264;2023-04-24T08:16:45;98794.22;;;5.29;63.19
78064;BME280;67429;51.596;-3.264;2023-04-24T08:19:11;98784.50;;;6.02;61.80
78064;BME280;67429;51.596;-3.264;2023-04-24T08:21:36;98781.03;;;6.16;60.92
78064;BME280;67429;51.596;-3.264;2023-04-24T08:24:01;98783.33;;;6.50;60.17
78064;BME280;67429;51.596;-3.264;2023-04-24T08:26:26;98786.62;;;6.70;61.20
78064;BME280;67429;51.596;-3.264;2023-04-24T08:28:52;98785.60;;;6.67;60.91
78064;BME280;67429;51.596;-3.264;2023-04-24T08:31:17;98788.14;;;6.64;60.14
78064;BME280;67429;51.596;-3.264;2023-04-24T08:33:42;98793.48;;;7.03;59.05
78064;BME280;67429;51.596;-3.264;2023-04-24T08:36:08;98800.04;;;7.63;58.71
78064;BME280;67429;51.596;-3.264;2023-04-24T08:38:34;98803.89;;;7.62;58.11
78064;BME280;67429;51.596;-3.264;2023-04-24T08:41:00;98805.55;;;7.56;57.12
78064;BME280;67429;51.596;-3.264;2023-04-24T08:43:25;98807.02;;;7.34;56.80
78064;BME280;67429;51.596;-3.264;2023-04-24T08:45:49;98808.61;;;7.63;55.94
78064;BME280;67429;51.596;-3.264;2023-04-24T08:48:15;98811.51;;;7.81;56.39
78064;BME280;67429;51.596;-3.264;2023-04-24T08:50:40;98815.93;;;8.25;56.09
78064;BME280;67429;51.596;-3.264;2023-04-24T08:53:07;98810.94;;;8.44;55.28
78064;BME280;67429;51.596;-3.264;2023-04-24T08:55:33;98813.03;;;8.48;55.36
78064;BME280;67429;51.596;-3.264;2023-04-24T08:57:58;98816.51;;;7.88;56.28
78064;BME280;67429;51.596;-3.264;2023-04-24T09:00:23;98815.06;;;7.72;56.93
78064;BME280;67429;51.596;-3.264;2023-04-24T09:02:50;98815.67;;;7.31;58.83
78064;BME280;67429;51.596;-3.264;2023-04-24T09:05:16;98812.39;;;7.49;59.23
78064;BME280;67429;51.596;-3.264;2023-04-24T09:07:42;98810.73;;;7.31;59.50
78064;BME280;67429;51.596;-3.264;2023-04-24T09:10:07;98813.76;;;6.26;60.55
78064;BME280;67429;51.596;-3.264;2023-04-24T09:12:31;98820.20;;;7.45;59.09
78064;BME280;67429;51.596;-3.264;2023-04-24T09:14:57;98824.35;;;7.95;57.77
78064;BME280;67429;51.596;-3.264;2023-04-24T09:17:23;98824.31;;;7.83;58.27
78064;BME280;67429;51.596;-3.264;2023-04-24T09:19:49;98824.23;;;8.01;57.48
78064;BME280;67429;51.596;-3.264;2023-04-24T09:22:15;98824.71;;;8.21;57.77
78064;BME280;67429;51.596;-3.264;2023-04-24T09:24:39;98822.78;;;7.34;59.87
78064;BME280;67429;51.596;-3.264;2023-04-24T09:27:05;98824.28;;;6.74;60.70
78064;BME280;67429;51.596;-3.264;2023-04-24T09:29:30;98836.15;;;7.06;59.45
78064;BME280;67429;51.596;-3.264;2023-04-24T09:31:56;98843.30;;;7.06;60.91
78064;BME280;67429;51.596;-3.264;2023-04-24T09:34:22;98846.12;;;7.05;59.71
78064;BME280;67429;51.596;-3.264;2023-04-24T09:36:46;98844.54;;;7.12;59.88
78064;BME280;67429;51.596;-3.264;2023-04-24T09:39:12;98842.90;;;6.77;61.02
78064;BME280;67429;51.596;-3.264;2023-04-24T09:41:45;98842.97;;;7.18;60.88
78064;BME280;67429;51.596;-3.264;2023-04-24T09:44:11;98842.12;;;6.96;61.08
78064;BME280;67429;51.596;-3.264;2023-04-24T09:46:32;98850.02;;;6.57;61.46
78064;BME280;67429;51.596;-3.264;2023-04-24T09:48:53;98852.94;;;6.81;61.73
78064;BME280;67429;51.596;-3.264;2023-04-24T09:53:46;98848.12;;;6.39;62.44
78064;BME280;67429;51.596;-3.264;2023-04-24T09:56:11;98851.02;;;6.55;62.22
78064;BME280;67429;51.596;-3.264;2023-04-24T09:58:35;98855.67;;;6.99;62.17
78064;BME280;67429;51.596;-3.264;2023-04-24T10:01:00;98859.05;;;7.01;61.45
78064;BME280;67429;51.596;-3.264;2023-04-24T10:03:27;98863.27;;;6.61;61.36
78064;BME280;67429;51.596;-3.264;2023-04-24T10:05:52;98865.89;;;6.53;61.09
78064;BME280;67429;51.596;-3.264;2023-04-24T10:08:16;98865.67;;;6.66;62.47
78064;BME280;67429;51.596;-3.264;2023-04-24T10:10:43;98867.82;;;7.13;60.51
78064;BME280;67429;51.596;-3.264;2023-04-24T10:13:09;98870.84;;;7.17;60.70
78064;BME280;67429;51.596;-3.264;2023-04-24T10:15:34;98869.86;;;7.53;60.18
78064;BME280;67429;51.596;-3.264;2023-04-24T10:17:59;98867.19;;;7.66;59.75
78064;BME280;67429;51.596;-3.264;2023-04-24T10:20:26;98863.39;;;7.58;58.53
78064;BME280;67429;51.596;-3.264;2023-04-24T10:22:51;98860.13;;;8.06;58.10
78064;BME280;67429;51.596;-3.264;2023-04-24T10:25:16;98855.62;;;7.02;60.26
78064;BME280;67429;51.596;-3.264;2023-04-24T10:27:41;98848.84;;;6.78;61.82
78064;BME280;67429;51.596;-3.264;2023-04-24T10:30:08;98840.08;;;5.74;63.85
78064;BME280;67429;51.596;-3.264;2023-04-24T10:32:32;98841.05;;;5.36;65.98
78064;BME280;67429;51.596;-3.264;2023-04-24T10:34:58;98838.60;;;5.00;67.00
78064;BME280;67429;51.596;-3.264;2023-04-24T10:37:25;98836.66;;;4.15;68.92
78064;BME280;67429;51.596;-3.264;2023-04-24T10:39:50;98840.02;;;4.60;70.06
78064;BME280;67429;51.596;-3.264;2023-04-24T10:42:16;98838.25;;;4.64;69.37
78064;BME280;67429;51.596;-3.264;2023-04-24T10:44:42;98839.67;;;4.59;68.31
78064;BME280;67429;51.596;-3.264;2023-04-24T10:47:12;98839.18;;;5.20;67.50
78064;BME280;67429;51.596;-3.264;2023-04-24T10:49:32;98838.89;;;4.94;68.31
78064;BME280;67429;51.596;-3.264;2023-04-24T10:52:01;98834.87;;;4.64;69.45
78064;BME280;67429;51.596;-3.264;2023-04-24T10:54:25;98828.61;;;4.57;69.13
78064;BME280;67429;51.596;-3.264;2023-04-24T10:56:51;98831.95;;;5.12;68.01
78064;BME280;67429;51.596;-3.264;2023-04-24T10:59:24;98835.31;;;5.16;66.91
78064;BME280;67429;51.596;-3.264;2023-04-24T11:01:46;98837.14;;;5.81;66.21
78064;BME280;67429;51.596;-3.264;2023-04-24T11:04:06;98843.43;;;6.37;65.57
78064;BME280;67429;51.596;-3.264;2023-04-24T11:06:33;98848.57;;;5.69;66.47
78064;BME280;67429;51.596;-3.264;2023-04-24T11:09:03;98856.26;;;6.13;65.34
78064;BME280;67429;51.596;-3.264;2023-04-24T11:11:28;98861.67;;;6.69;63.46
78064;BME280;67429;51.596;-3.264;2023-04-24T11:14:03;98861.42;;;6.84;61.80
78064;BME280;67429;51.596;-3.264;2023-04-24T11:16:21;98859.73;;;7.59;60.09
78064;BME280;67429;51.596;-3.264;2023-04-24T11:18:42;98856.44;;;7.26;60.46
78064;BME280;67429;51.596;-3.264;2023-04-24T11:21:11;98856.96;;;7.58;59.04
78064;BME280;67429;51.596;-3.264;2023-04-24T11:23:36;98858.99;;;7.96;60.24
78064;BME280;67429;51.596;-3.264;2023-04-24T11:26:11;98859.01;;;8.60;57.78
78064;BME280;67429;51.596;-3.264;2023-04-24T11:28:24;98867.43;;;7.98;59.32
78064;BME280;67429;51.596;-3.264;2023-04-24T11:30:49;98867.70;;;8.34;58.64
78064;BME280;67429;51.596;-3.264;2023-04-24T11:33:19;98862.77;;;8.69;56.03
78064;BME280;67429;51.596;-3.264;2023-04-24T11:35:40;98865.72;;;9.29;55.45
78064;BME280;67429;51.596;-3.264;2023-04-24T11:38:06;98872.14;;;9.22;54.06
78064;BME280;67429;51.596;-3.264;2023-04-24T11:40:31;98875.62;;;8.70;54.86
78064;BME280;67429;51.596;-3.264;2023-04-24T11:43:00;98873.33;;;9.56;54.38
78064;BME280;67429;51.596;-3.264;2023-04-24T11:45:24;98869.47;;;9.16;53.88
78064;BME280;67429;51.596;-3.264;2023-04-24T11:47:48;98866.46;;;8.66;57.32
78064;BME280;67429;51.596;-3.264;2023-04-24T11:50:15;98866.75;;;7.99;56.59
78064;BME280;67429;51.596;-3.264;2023-04-24T11:52:41;98868.13;;;8.81;56.81
78064;BME280;67429;51.596;-3.264;2023-04-24T11:55:08;98867.28;;;9.06;54.77
78064;BME280;67429;51.596;-3.264;2023-04-24T11:57:31;98867.72;;;8.76;57.41
78064;BME280;67429;51.596;-3.264;2023-04-24T11:59:57;98864.72;;;10.33;56.95
78064;BME280;67429;51.596;-3.264;2023-04-24T12:02:23;98865.21;;;10.15;54.59
78064;BME280;67429;51.596;-3.264;2023-04-24T12:04:48;98864.96;;;11.00;54.99
78064;BME280;67429;51.596;-3.264;2023-04-24T12:07:14;98859.20;;;10.34;54.49
78064;BME280;67429;51.596;-3.264;2023-04-24T12:09:41;98865.23;;;10.19;53.48
78064;BME280;67429;51.596;-3.264;2023-04-24T12:12:06;98865.32;;;10.44;53.49
78064;BME280;67429;51.596;-3.264;2023-04-24T12:14:31;98865.13;;;11.33;49.70
78064;BME280;67429;51.596;-3.264;2023-04-24T12:16:59;98863.41;;;10.75;51.43
78064;BME280;67429;51.596;-3.264;2023-04-24T12:19:23;98865.41;;;11.08;51.29
78064;BME280;67429;51.596;-3.264;2023-04-24T12:21:59;98859.08;;;10.49;51.69
78064;BME280;67429;51.596;-3.264;2023-04-24T12:24:13;98863.42;;;9.65;51.49
78064;BME280;67429;51.596;-3.264;2023-04-24T12:26:43;98859.26;;;10.21;50.86
78064;BME280;67429;51.596;-3.264;2023-04-24T12:29:04;98860.32;;;10.52;50.18
78064;BME280;67429;51.596;-3.264;2023-04-24T12:31:30;98861.49;;;11.31;48.66
78064;BME280;67429;51.596;-3.264;2023-04-24T12:33:55;98868.06;;;12.41;49.95
78064;BME280;67429;51.596;-3.264;2023-04-24T12:36:21;98867.71;;;12.83;46.15
78064;BME280;67429;51.596;-3.264;2023-04-24T12:38:52;98872.02;;;12.78;46.42
78064;BME280;67429;51.596;-3.264;2023-04-24T12:41:13;98874.94;;;12.97;44.43
78064;BME280;67429;51.596;-3.264;2023-04-24T12:43:38;98871.69;;;10.74;48.13
78064;BME280;67429;51.596;-3.264;2023-04-24T12:46:05;98873.06;;;10.09;50.06
78064;BME280;67429;51.596;-3.264;2023-04-24T12:48:29;98869.97;;;10.38;46.77
78064;BME280;67429;51.596;-3.264;2023-04-24T12:50:56;98867.65;;;9.00;50.69
78064;BME280;67429;51.596;-3.264;2023-04-24T12:53:20;98866.41;;;9.47;50.03